Williamsport, IN (47993)

11:13 AM EST on February 28, 2015 (GMT -0500)
Warren County, IN | Change Station
CLOSE
Current Station
Personal Weather Station
Location: Attica, IN
Elevation: 615 ft
Nearby Weather Stations
Active Advisory: Winter Weather Advisory

Elev 615 ft 40.35 °N, 87.21 °W | Updated 2 minutes ago

Mostly Cloudy
Mostly Cloudy
18.3 °F
Feels Like 18 °F
N
2.0
Wind Variable Wind from ESE
Gusts 3.0 mph

Today
High -- | Low -- °F
--% Chance of Precip.
Yesterday
High -- | Low -- °F
Precip. -- in
7:24 AM 6:39 PM
Waxing Gibbous, 78% visible
Pressure 30.67 in
Visibility 10.0 miles
Clouds Scattered Clouds 6500 ft
Mostly Cloudy 11000 ft
Windchill 18 °F
Dew Point 10 °F
Humidity 68%
Rainfall 0.00 in
Snow Depth Not available.
UV 2 out of 12
Pollen .50 out of 12
Air Quality Not available.
Flu Activity Not available.
METAR KDNV 281555Z AUTO 11004KT 10SM SCT065 BKN110 M09/M14 A3067 RMK AO2 T10931144

More Conditions Fewer Conditions

Pressure 30.67 in
Visibility 10.0 miles
Clouds Scattered Clouds 6500 ft
Mostly Cloudy 11000 ft
Windchill 18 °F
Dew Point 10 °F
Humidity 68%
Rainfall 0.00 in
Snow Depth Not available.
UV 2 out of 12
Pollen .50 out of 12
Air Quality Not available.
Flu Activity Not available.
METAR KDNV 281555Z AUTO 11004KT 10SM SCT065 BKN110 M09/M14 A3067 RMK AO2 T10931144

More Conditions Fewer Conditions

10-Day Weather Forecast

Almanac

Astronomy

Feb. 28, 2015 Rise Set
Actual Time
Civil Twilight
Nautical Twilight
Astronomical Twilight
Moon
Length of Visible Light
Length of Day
Tomorrow will be .
, % of the Moon is Illuminated

Today's Extremes

State Highs State Lows

Community

WunderPhotos

Upload Photos

1,801,072 photos uploaded!

WunderBlogs® & News

Nearby

Air Quality

  Air Quality AQ Index Pollutant
Not available.

Snow Depth

Station Depth Elevation

Earthquake Activity

City Distance Mag. Time & Date
Minimum magnitude displayed is 2.5.

Coastal Water Temperatures

Place Temperature

Nearby Weather Stations

Winter Weather Advisory
Statement as of 10:50 AM EST on February 28, 2015

... Winter Weather Advisory remains in effect from 7 PM this
evening to 7 PM EST Sunday...

A Winter Weather Advisory remains in effect from 7 PM this
evening to 7 PM EST Sunday for accumulating snow of 4 to 7 inches.


* Timing... accumulating snow beginning around sunset and lasting
through the day Sunday. The snow may mix with rain at times
during the day Sunday.

* Main impact... hazardous travel conditions due to accumulating
snow.

* Other impacts... reduced visibility in areas of heavier snow.

Precautionary/preparedness actions...

A Winter Weather Advisory for snow means that periods of snow
will cause primarily travel difficulties. Be prepared for snow
covered roads and limited visibilities... and use caution while
driving.